Time;durP1;ratioP1;P1;durP2;ratioP2;P2;SDS_P1;SDS_P2;PMS_P1;PMS_P2;Temp;Humidity;BMP_temperature;BMP_pressure;BME280_temperature;BME280_humidity;BME280_pressure;Samples;Min_cycle;Max_cycle;Signal;HPM_P1;HPM_P2
2023/12/22 00:01:08;;;;;;;130.65;57.72;;;18.10;63.40;;;;;;5047484;28;20857;-41
2023/12/22 00:03:34;;;;;;;131.10;57.85;;;18.10;63.30;;;;;;5049012;28;20057;-43
2023/12/22 00:05:59;;;;;;;130.82;57.67;;;18.10;63.60;;;;;;5062422;28;20102;-42
2023/12/22 00:08:25;;;;;;;131.55;57.63;;;18.00;63.60;;;;;;5051674;28;20135;-44
2023/12/22 00:10:51;;;;;;;132.93;58.25;;;18.00;63.60;;;;;;5049151;28;20226;-41
2023/12/22 00:13:17;;;;;;;131.68;57.85;;;18.00;63.50;;;;;;5045847;28;20045;-44
2023/12/22 00:15:42;;;;;;;132.95;57.88;;;17.90;63.50;;;;;;5044719;28;20033;-45
2023/12/22 00:18:08;;;;;;;133.75;57.92;;;17.90;63.80;;;;;;5049033;28;20067;-42
2023/12/22 00:20:34;;;;;;;136.18;58.65;;;17.90;63.90;;;;;;5042503;28;21889;-36
2023/12/22 00:23:00;;;;;;;133.38;58.53;;;17.90;63.60;;;;;;5047422;28;20143;-40
2023/12/22 00:25:26;;;;;;;132.80;58.22;;;17.90;64.10;;;;;;5047346;28;20384;-41
2023/12/22 00:27:52;;;;;;;132.98;57.97;;;17.90;63.60;;;;;;5040134;28;20071;-39
2023/12/22 00:30:18;;;;;;;135.15;58.45;;;17.80;63.60;;;;;;5041720;28;20963;-44
2023/12/22 00:32:43;;;;;;;131.25;58.30;;;17.80;63.90;;;;;;5044375;28;20099;-37
2023/12/22 00:35:09;;;;;;;132.80;57.38;;;17.80;63.90;;;;;;5046983;28;20506;-44
2023/12/22 00:37:35;;;;;;;132.20;57.63;;;17.80;64.20;;;;;;5055325;28;20044;-45
2023/12/22 00:40:02;;;;;;;135.23;57.60;;;17.80;64.20;;;;;;5052898;28;20053;-40
2023/12/22 00:42:27;;;;;;;131.43;58.03;;;17.70;64.10;;;;;;5042696;28;20124;-39
2023/12/22 00:44:53;;;;;;;132.15;57.50;;;17.80;64.30;;;;;;5045457;28;20041;-42
2023/12/22 00:47:19;;;;;;;134.10;58.03;;;17.70;64.20;;;;;;5045143;28;20696;-38
2023/12/22 00:49:45;;;;;;;134.05;58.40;;;17.70;64.10;;;;;;5044762;28;20101;-40
2023/12/22 00:52:10;;;;;;;131.35;57.80;;;17.70;64.00;;;;;;5050134;28;20044;-38
2023/12/22 00:54:36;;;;;;;133.50;57.92;;;17.60;64.30;;;;;;5048917;28;20049;-41
2023/12/22 00:57:01;;;;;;;132.98;57.75;;;17.60;64.10;;;;;;5046031;28;20045;-39
2023/12/22 00:59:27;;;;;;;132.18;57.35;;;17.60;64.00;;;;;;5049712;28;20183;-41
2023/12/22 01:01:53;;;;;;;131.93;57.67;;;17.60;64.30;;;;;;5047799;28;20051;-42
2023/12/22 01:04:18;;;;;;;134.15;57.50;;;17.60;64.30;;;;;;5046743;28;20049;-42
2023/12/22 01:06:44;;;;;;;130.15;57.10;;;17.60;64.30;;;;;;5055119;28;20041;-43
2023/12/22 01:09:10;;;;;;;133.88;57.42;;;17.60;64.20;;;;;;5053582;28;20115;-41
2023/12/22 01:11:36;;;;;;;131.05;57.70;;;17.50;64.40;;;;;;5045672;28;20037;-46
2023/12/22 01:14:01;;;;;;;131.73;57.47;;;17.50;64.40;;;;;;5042931;28;20841;-44
2023/12/22 01:16:27;;;;;;;132.60;57.67;;;17.50;64.50;;;;;;5047638;28;20036;-46
2023/12/22 01:18:53;;;;;;;132.32;57.72;;;17.50;64.40;;;;;;5050665;28;20048;-39
2023/12/22 01:21:18;;;;;;;131.40;57.10;;;17.50;64.50;;;;;;5045863;28;20037;-45
2023/12/22 01:23:44;;;;;;;132.52;57.50;;;17.60;64.60;;;;;;5047158;28;20056;-41
2023/12/22 01:26:10;;;;;;;132.48;58.15;;;17.50;64.40;;;;;;5045413;28;20044;-39
2023/12/22 01:28:36;;;;;;;133.10;58.08;;;17.50;64.50;;;;;;5046250;28;20133;-43
2023/12/22 01:31:02;;;;;;;132.75;58.22;;;17.40;64.30;;;;;;5049669;28;20756;-41
2023/12/22 01:33:29;;;;;;;130.65;57.30;;;17.40;64.40;;;;;;5050674;28;20439;-42
2023/12/22 01:35:55;;;;;;;130.93;57.15;;;17.40;64.50;;;;;;5054662;28;20041;-41
2023/12/22 01:38:20;;;;;;;132.38;57.42;;;17.40;64.40;;;;;;5052450;28;20059;-42
2023/12/22 01:40:46;;;;;;;138.88;58.20;;;17.40;64.50;;;;;;5055360;28;20087;-40
2023/12/22 01:43:13;;;;;;;130.10;57.08;;;17.40;64.20;;;;;;5043827;28;20056;-41
2023/12/22 01:45:39;;;;;;;132.15;57.38;;;17.30;64.30;;;;;;5048160;28;20044;-43
2023/12/22 01:48:05;;;;;;;131.80;57.83;;;17.30;64.40;;;;;;5045937;28;20093;-38
2023/12/22 01:50:31;;;;;;;132.43;57.42;;;17.30;64.40;;;;;;5045756;28;20037;-43
2023/12/22 01:52:57;;;;;;;130.98;57.35;;;17.30;64.50;;;;;;5050638;28;20037;-43
2023/12/22 01:55:22;;;;;;;130.88;57.20;;;17.30;64.70;;;;;;5046552;28;20068;-41
2023/12/22 01:57:49;;;;;;;128.73;57.20;;;17.30;64.70;;;;;;5048731;28;20156;-43
2023/12/22 02:00:15;;;;;;;130.40;56.80;;;17.30;64.60;;;;;;5049195;28;20086;-38
2023/12/22 02:02:44;;;;;;;129.77;57.35;;;17.30;64.60;;;;;;5040829;28;20037;-37
2023/12/22 02:05:11;;;;;;;132.77;57.70;;;17.30;64.50;;;;;;5048880;28;20053;-37
2023/12/22 02:07:41;;;;;;;130.18;57.55;;;17.20;64.60;;;;;;5049175;28;20053;-36
2023/12/22 02:10:10;;;;;;;131.52;57.25;;;17.20;64.50;;;;;;5057186;28;20037;-37
2023/12/22 02:12:38;;;;;;;131.18;57.90;;;17.20;64.50;;;;;;5048023;28;20044;-37
2023/12/22 02:15:05;;;;;;;132.68;57.85;;;17.20;64.30;;;;;;5042284;28;20156;-37
2023/12/22 02:17:45;;;;;;;130.50;57.58;;;17.20;64.70;;;;;;5044857;28;20691;-37
2023/12/22 02:20:11;;;;;;;132.35;57.72;;;17.10;64.60;;;;;;5057682;28;20049;-36
2023/12/22 02:22:37;;;;;;;131.60;57.28;;;17.10;64.40;;;;;;5058021;28;20040;-36
2023/12/22 02:25:03;;;;;;;131.30;57.90;;;17.10;64.60;;;;;;5053675;28;20819;-37
2023/12/22 02:27:45;;;;;;;132.52;57.90;;;17.10;64.50;;;;;;5050207;28;20531;-36
2023/12/22 02:30:30;;;;;;;130.55;57.28;;;17.10;64.60;;;;;;5042795;28;20111;-37
2023/12/22 02:33:00;;;;;;;131.18;57.67;;;17.10;64.70;;;;;;5043636;28;20799;-37
2023/12/22 02:35:29;;;;;;;133.27;57.65;;;17.00;64.80;;;;;;5043830;28;20046;-37
2023/12/22 02:37:57;;;;;;;130.40;57.35;;;17.00;64.60;;;;;;5042843;28;20037;-38
2023/12/22 02:40:24;;;;;;;130.88;57.40;;;17.10;64.60;;;;;;5048639;28;20072;-36
2023/12/22 02:42:52;;;;;;;131.32;58.10;;;17.00;64.80;;;;;;5044027;28;20061;-37
2023/12/22 02:45:19;;;;;;;130.02;57.58;;;17.00;64.60;;;;;;5043686;28;20049;-37
2023/12/22 02:47:45;;;;;;;132.80;57.63;;;17.00;64.50;;;;;;5042512;28;20045;-37
2023/12/22 02:50:13;;;;;;;133.63;57.65;;;17.00;64.30;;;;;;5043574;28;20065;-37
2023/12/22 02:52:38;;;;;;;130.50;57.30;;;17.00;64.50;;;;;;5042675;28;20033;-37
2023/12/22 02:55:05;;;;;;;135.57;58.00;;;17.00;64.50;;;;;;5048072;28;20099;-36
2023/12/22 02:57:30;;;;;;;129.98;56.88;;;17.00;64.40;;;;;;5046836;28;20044;-37
2023/12/22 02:59:56;;;;;;;131.25;57.20;;;17.00;64.50;;;;;;5049093;28;20407;-35
2023/12/22 03:02:22;;;;;;;129.68;56.88;;;17.00;64.60;;;;;;5049095;28;20094;-37
2023/12/22 03:04:48;;;;;;;131.68;57.00;;;17.00;64.40;;;;;;5039912;28;20048;-36
2023/12/22 03:07:14;;;;;;;134.63;57.70;;;16.90;64.00;;;;;;5048049;28;20041;-37
2023/12/22 03:09:40;;;;;;;129.18;57.28;;;16.90;65.00;;;;;;5049055;28;20067;-36
2023/12/22 03:12:07;;;;;;;133.70;58.30;;;16.90;64.30;;;;;;5050123;28;20071;-36
2023/12/22 03:14:34;;;;;;;133.32;57.92;;;16.90;64.50;;;;;;5046980;28;20166;-37
2023/12/22 03:17:00;;;;;;;130.43;57.40;;;16.90;64.60;;;;;;5051487;28;20041;-37
2023/12/22 03:19:26;;;;;;;131.05;57.60;;;16.90;64.40;;;;;;5046648;28;20121;-37
2023/12/22 03:21:52;;;;;;;130.80;57.33;;;16.90;64.20;;;;;;5045191;28;20108;-41
2023/12/22 03:24:22;;;;;;;130.20;57.67;;;16.80;64.20;;;;;;5044597;28;20045;-47
2023/12/22 03:26:48;;;;;;;130.05;57.67;;;16.80;64.10;;;;;;5046738;28;20075;-44
2023/12/22 03:29:14;;;;;;;134.00;57.83;;;16.90;64.20;;;;;;5044968;28;20110;-39
2023/12/22 03:31:40;;;;;;;131.80;57.55;;;16.80;64.00;;;;;;5044780;28;20037;-41
2023/12/22 03:34:06;;;;;;;130.95;57.78;;;16.80;64.10;;;;;;5047784;28;20618;-43
2023/12/22 03:36:32;;;;;;;131.55;57.42;;;16.80;63.80;;;;;;5050862;28;21130;-44
2023/12/22 03:38:57;;;;;;;131.82;57.00;;;16.80;64.00;;;;;;5052627;28;20084;-41
2023/12/22 03:41:23;;;;;;;130.77;57.42;;;16.80;64.20;;;;;;5052494;28;20075;-40
2023/12/22 03:43:49;;;;;;;133.15;58.17;;;16.80;64.20;;;;;;5045760;28;20782;-45
2023/12/22 03:46:14;;;;;;;131.25;57.42;;;16.80;64.00;;;;;;5052409;28;20545;-41
2023/12/22 03:48:40;;;;;;;130.95;57.58;;;16.80;64.10;;;;;;5052396;28;20041;-40
2023/12/22 03:51:06;;;;;;;132.20;57.03;;;16.80;63.80;;;;;;5062511;28;20964;-40
2023/12/22 03:53:31;;;;;;;133.75;57.95;;;16.80;64.00;;;;;;5059023;28;20124;-43
2023/12/22 03:55:57;;;;;;;131.45;57.50;;;16.80;64.00;;;;;;5057299;28;20037;-41
2023/12/22 03:58:23;;;;;;;131.65;57.40;;;16.80;64.00;;;;;;5054570;28;20976;-40
2023/12/22 04:00:48;;;;;;;132.02;58.05;;;16.80;63.80;;;;;;5052587;28;20037;-41
2023/12/22 04:03:14;;;;;;;131.18;57.30;;;16.70;63.90;;;;;;5052121;28;20037;-41
2023/12/22 04:05:40;;;;;;;131.55;57.72;;;16.70;64.10;;;;;;5054033;28;20038;-41
2023/12/22 04:08:06;;;;;;;132.15;57.67;;;16.70;63.60;;;;;;5052320;28;20379;-39
2023/12/22 04:10:32;;;;;;;130.85;58.13;;;16.70;63.80;;;;;;5053894;28;20098;-43
2023/12/22 04:12:57;;;;;;;132.93;57.28;;;16.70;64.10;;;;;;5057798;28;20041;-40
2023/12/22 04:15:23;;;;;;;133.60;57.83;;;16.70;63.80;;;;;;5059900;28;20033;-40
2023/12/22 04:17:49;;;;;;;133.43;57.78;;;16.70;63.80;;;;;;5058811;28;20129;-42
2023/12/22 04:20:15;;;;;;;130.77;57.17;;;16.70;63.70;;;;;;5054574;28;20042;-39
2023/12/22 04:22:41;;;;;;;129.75;57.28;;;16.70;63.90;;;;;;5059157;28;20053;-39
2023/12/22 04:25:08;;;;;;;132.70;57.72;;;16.70;63.70;;;;;;5053154;28;21054;-39
2023/12/22 04:27:34;;;;;;;130.30;57.50;;;16.70;63.70;;;;;;5054000;28;20033;-43
2023/12/22 04:30:00;;;;;;;132.55;57.08;;;16.60;63.80;;;;;;5052607;28;20048;-44
2023/12/22 04:32:25;;;;;;;132.18;57.53;;;16.60;63.80;;;;;;5058302;28;20033;-36
2023/12/22 04:34:51;;;;;;;130.48;56.80;;;16.60;63.70;;;;;;5057975;28;20176;-36
2023/12/22 04:37:17;;;;;;;128.10;56.88;;;16.60;63.80;;;;;;5060346;28;20105;-37
2023/12/22 04:39:42;;;;;;;130.68;57.67;;;16.60;63.60;;;;;;5054211;28;20072;-36
2023/12/22 04:42:08;;;;;;;131.80;57.58;;;16.60;63.70;;;;;;5055251;28;20045;-36
2023/12/22 04:44:34;;;;;;;132.07;57.97;;;16.60;63.70;;;;;;5048432;28;20065;-36
2023/12/22 04:47:00;;;;;;;130.32;56.92;;;16.60;63.80;;;;;;5059421;28;20094;-35
2023/12/22 04:49:26;;;;;;;133.77;57.80;;;16.60;63.60;;;;;;5058797;28;20068;-37
2023/12/22 04:51:52;;;;;;;131.27;57.80;;;16.60;63.90;;;;;;5054274;28;20050;-36
2023/12/22 04:54:18;;;;;;;130.63;57.22;;;16.60;63.60;;;;;;5055121;28;20043;-36
2023/12/22 04:56:44;;;;;;;130.43;57.38;;;16.60;63.70;;;;;;5056903;28;20033;-38
2023/12/22 04:59:09;;;;;;;130.35;57.15;;;16.60;63.80;;;;;;5056651;28;20040;-36
2023/12/22 05:01:35;;;;;;;132.07;58.15;;;16.60;63.70;;;;;;5057984;28;20074;-35
2023/12/22 05:04:01;;;;;;;129.82;57.10;;;16.60;63.90;;;;;;5055365;28;20289;-35
2023/12/22 05:06:29;;;;;;;133.13;56.92;;;16.60;63.90;;;;;;5055046;28;21184;-36
2023/12/22 05:08:56;;;;;;;128.55;57.22;;;16.60;63.90;;;;;;5053518;28;20594;-36
2023/12/22 05:11:22;;;;;;;131.05;56.65;;;16.60;63.90;;;;;;5055956;28;20047;-35
2023/12/22 05:13:48;;;;;;;132.38;57.83;;;16.60;63.80;;;;;;5052517;28;20176;-37
2023/12/22 05:16:14;;;;;;;131.43;57.40;;;16.60;64.00;;;;;;5059532;28;20091;-36
2023/12/22 05:18:40;;;;;;;129.90;56.83;;;16.50;64.00;;;;;;5060649;28;20605;-35
2023/12/22 05:21:05;;;;;;;129.77;57.53;;;16.50;63.90;;;;;;5059909;28;20148;-36
2023/12/22 05:23:32;;;;;;;130.32;57.58;;;16.50;64.20;;;;;;5059266;28;20123;-36
2023/12/22 05:25:58;;;;;;;131.00;57.70;;;16.50;64.10;;;;;;5056921;28;20580;-36
2023/12/22 05:28:23;;;;;;;131.23;57.88;;;16.50;64.00;;;;;;5057335;28;20037;-36
2023/12/22 05:30:49;;;;;;;130.65;57.80;;;16.50;64.10;;;;;;5057751;28;20044;-36
2023/12/22 05:33:15;;;;;;;128.85;56.63;;;16.50;64.10;;;;;;5055153;28;20128;-36
2023/12/22 05:35:40;;;;;;;130.20;57.05;;;16.50;64.30;;;;;;5059432;28;20037;-37
2023/12/22 05:38:06;;;;;;;129.82;57.53;;;16.50;64.20;;;;;;5055998;28;20144;-38
2023/12/22 05:40:32;;;;;;;129.05;56.63;;;16.50;64.30;;;;;;5059915;28;20041;-36
2023/12/22 05:42:57;;;;;;;129.88;56.92;;;16.40;64.20;;;;;;5055479;28;20145;-37
2023/12/22 05:45:26;;;;;;;126.68;56.40;;;16.40;64.40;;;;;;5058453;28;20042;-36
2023/12/22 05:47:52;;;;;;;134.45;57.13;;;16.40;64.40;;;;;;5055259;28;20036;-37
2023/12/22 05:50:18;;;;;;;131.93;57.05;;;16.40;64.50;;;;;;5054567;28;20041;-36
2023/12/22 05:52:46;;;;;;;127.72;56.63;;;16.40;64.40;;;;;;5055842;28;20037;-36
2023/12/22 05:55:12;;;;;;;132.05;56.90;;;16.40;64.30;;;;;;5057556;28;20043;-37
2023/12/22 05:57:37;;;;;;;127.68;56.67;;;16.40;64.40;;;;;;5051847;28;21867;-37
2023/12/22 06:00:09;;;;;;;130.52;57.35;;;16.40;64.40;;;;;;5053753;28;20094;-36
2023/12/22 06:02:35;;;;;;;129.85;57.15;;;16.40;64.40;;;;;;5057565;28;20037;-36
2023/12/22 06:05:01;;;;;;;129.43;57.15;;;16.40;64.30;;;;;;5055698;28;20045;-36
2023/12/22 06:07:27;;;;;;;129.45;57.22;;;16.30;64.50;;;;;;5059064;28;20517;-36
2023/12/22 06:09:52;;;;;;;129.50;57.22;;;16.40;64.60;;;;;;5046501;28;20071;-37
2023/12/22 06:12:18;;;;;;;127.95;56.95;;;16.30;64.60;;;;;;5054461;28;20107;-36
2023/12/22 06:14:44;;;;;;;129.40;56.42;;;16.40;64.60;;;;;;5056754;28;20041;-37
2023/12/22 06:17:09;;;;;;;127.82;56.83;;;16.40;64.80;;;;;;5053276;28;20144;-36
2023/12/22 06:19:38;;;;;;;129.23;56.53;;;16.40;64.80;;;;;;5058405;28;20132;-35
2023/12/22 06:22:04;;;;;;;127.07;56.85;;;16.30;64.80;;;;;;5056165;28;20064;-36
2023/12/22 06:24:29;;;;;;;129.48;57.22;;;16.30;64.80;;;;;;5054212;28;20179;-36
2023/12/22 06:26:55;;;;;;;129.32;56.80;;;16.40;64.90;;;;;;5055570;28;20120;-36
2023/12/22 06:29:21;;;;;;;128.50;57.08;;;16.30;64.80;;;;;;5050440;28;20120;-36
2023/12/22 06:31:50;;;;;;;128.27;56.13;;;16.30;64.90;;;;;;5057484;28;20085;-36
2023/12/22 06:34:16;;;;;;;127.05;56.50;;;16.30;65.00;;;;;;5059958;28;20076;-36
2023/12/22 06:36:42;;;;;;;126.70;56.72;;;16.30;65.00;;;;;;5059977;28;20706;-36
2023/12/22 06:39:08;;;;;;;125.78;56.45;;;16.30;65.00;;;;;;5050950;28;20044;-36
2023/12/22 06:41:34;;;;;;;127.65;56.85;;;16.30;65.10;;;;;;5057661;28;20041;-41
2023/12/22 06:44:00;;;;;;;126.50;55.65;;;16.30;65.20;;;;;;5061804;28;20088;-39
2023/12/22 06:46:26;;;;;;;128.32;56.10;;;16.40;65.40;;;;;;5058820;28;20040;-40
2023/12/22 06:48:53;;;;;;;126.60;56.55;;;16.30;65.40;;;;;;5054815;28;20052;-39
2023/12/22 06:51:27;;;;;;;127.60;56.55;;;16.40;65.60;;;;;;5052396;28;20979;-38
2023/12/22 06:53:57;;;;;;;127.10;56.58;;;16.30;65.60;;;;;;5059672;28;20041;-39
2023/12/22 06:56:27;;;;;;;127.10;56.30;;;16.30;65.60;;;;;;5054426;28;20515;-39
2023/12/22 06:58:55;;;;;;;131.15;56.67;;;16.30;65.60;;;;;;5056983;28;20099;-38
2023/12/22 07:01:34;;;;;;;125.68;55.85;;;16.30;65.90;;;;;;5060479;28;20041;-42
2023/12/22 07:04:01;;;;;;;125.45;55.97;;;16.30;66.00;;;;;;5060661;28;20542;-41
2023/12/22 07:06:29;;;;;;;128.68;56.60;;;16.30;66.10;;;;;;5059945;28;21143;-39
2023/12/22 07:09:11;;;;;;;129.20;56.40;;;16.30;66.10;;;;;;5053209;28;20037;-39
2023/12/22 07:11:37;;;;;;;127.63;56.15;;;16.30;66.20;;;;;;5056605;28;20080;-41
2023/12/22 07:14:02;;;;;;;128.55;55.97;;;16.30;66.40;;;;;;5058847;28;20080;-43
2023/12/22 07:16:28;;;;;;;126.88;56.33;;;16.30;66.50;;;;;;5056466;28;20028;-41
2023/12/22 07:18:54;;;;;;;127.30;56.58;;;16.30;66.60;;;;;;5049217;28;20055;-41
2023/12/22 07:21:20;;;;;;;124.97;55.47;;;16.30;66.50;;;;;;5054161;28;20041;-42
2023/12/22 07:23:45;;;;;;;126.40;56.13;;;16.30;66.60;;;;;;5052135;28;20056;-43
2023/12/22 07:26:11;;;;;;;128.60;56.50;;;16.30;66.60;;;;;;5045436;28;20044;-44
2023/12/22 07:28:37;;;;;;;126.50;56.28;;;16.30;66.90;;;;;;5046676;28;20419;-40
2023/12/22 07:31:03;;;;;;;126.22;56.70;;;16.40;67.10;;;;;;5045148;28;20812;-43
2023/12/22 07:33:29;;;;;;;127.05;56.92;;;16.30;67.00;;;;;;5032935;28;20041;-42
2023/12/22 07:35:54;;;;;;;128.98;56.47;;;16.30;67.10;;;;;;5037687;28;20746;-44
2023/12/22 07:38:20;;;;;;;126.78;56.75;;;16.30;67.10;;;;;;5042784;28;20535;-41
2023/12/22 07:40:46;;;;;;;126.20;56.63;;;16.30;67.00;;;;;;5034761;28;20045;-39
2023/12/22 07:43:13;;;;;;;126.40;56.47;;;16.30;67.10;;;;;;5034805;28;20096;-42
2023/12/22 07:45:38;;;;;;;127.68;56.80;;;16.30;67.30;;;;;;5041930;28;20044;-42
2023/12/22 07:48:04;;;;;;;125.50;55.88;;;16.30;67.20;;;;;;5050130;28;20647;-45
2023/12/22 07:50:30;;;;;;;126.07;56.72;;;16.30;67.00;;;;;;5054319;28;20037;-43
2023/12/22 07:52:55;;;;;;;125.10;55.63;;;16.30;67.10;;;;;;5049990;28;20029;-40
2023/12/22 07:55:21;;;;;;;126.63;56.15;;;16.30;67.10;;;;;;5048932;28;20490;-45
2023/12/22 07:57:47;;;;;;;128.10;56.83;;;16.40;67.60;;;;;;5047919;28;20076;-42
2023/12/22 08:00:13;;;;;;;127.57;56.53;;;16.50;67.30;;;;;;5048791;28;20040;-41
2023/12/22 08:02:38;;;;;;;128.20;56.88;;;16.50;67.10;;;;;;5044251;28;20025;-41
2023/12/22 08:05:05;;;;;;;128.18;57.45;;;16.60;67.00;;;;;;5048633;28;20505;-42
2023/12/22 08:07:31;;;;;;;126.95;56.83;;;16.60;66.90;;;;;;5054736;28;21202;-42
2023/12/22 08:09:57;;;;;;;128.93;57.72;;;16.70;67.80;;;;;;5048933;28;20045;-41
2023/12/22 08:12:22;;;;;;;128.40;57.08;;;16.60;66.90;;;;;;5053903;28;21183;-44
2023/12/22 08:14:48;;;;;;;131.65;56.70;;;16.70;66.90;;;;;;5054873;28;20044;-41
2023/12/22 08:17:14;;;;;;;127.78;56.97;;;16.70;66.90;;;;;;5051656;28;20038;-42
2023/12/22 08:19:42;;;;;;;125.63;56.55;;;16.70;67.00;;;;;;5052140;28;20056;-43
2023/12/22 08:22:10;;;;;;;130.15;56.67;;;16.70;67.00;;;;;;5053201;28;20038;-43
2023/12/22 08:24:36;;;;;;;127.57;56.30;;;16.60;66.90;;;;;;5041684;28;20041;-43
2023/12/22 08:27:01;;;;;;;131.10;57.25;;;16.70;67.10;;;;;;5037901;28;20037;-40
2023/12/22 08:29:27;;;;;;;128.10;56.78;;;16.60;67.10;;;;;;5037185;28;20064;-41
2023/12/22 08:31:53;;;;;;;129.90;57.17;;;16.70;67.30;;;;;;5032373;28;21933;-41
2023/12/22 08:34:19;;;;;;;131.18;57.13;;;16.70;68.20;;;;;;5042715;28;20036;-42
2023/12/22 08:36:45;;;;;;;129.70;57.67;;;16.70;67.80;;;;;;5043036;28;20037;-40
2023/12/22 08:39:10;;;;;;;128.25;57.17;;;16.70;68.00;;;;;;5038235;28;20647;-45
2023/12/22 08:41:37;;;;;;;136.00;57.85;;;16.70;68.20;;;;;;5036271;28;20055;-41
2023/12/22 08:44:06;;;;;;;132.60;57.47;;;16.70;69.10;;;;;;5036995;28;21701;-42
2023/12/22 08:46:32;;;;;;;133.10;58.05;;;16.70;69.60;;;;;;5042379;28;20104;-40
2023/12/22 08:48:59;;;;;;;133.40;57.72;;;16.70;69.80;;;;;;5023830;28;20037;-39
2023/12/22 08:51:26;;;;;;;137.48;57.92;;;16.70;69.20;;;;;;5031746;28;20566;-40
2023/12/22 08:53:54;;;;;;;132.52;58.42;;;16.70;70.30;;;;;;5024080;28;20643;-41
2023/12/22 08:56:23;;;;;;;140.93;58.72;;;16.70;69.40;;;;;;5035137;28;20179;-40
2023/12/22 08:58:51;;;;;;;135.32;58.15;;;16.70;69.60;;;;;;5043680;28;20037;-40
2023/12/22 09:01:17;;;;;;;136.90;58.55;;;16.70;69.30;;;;;;5050703;28;20104;-40
2023/12/22 09:03:46;;;;;;;133.80;58.03;;;16.70;69.80;;;;;;5047924;28;20122;-45
2023/12/22 09:06:15;;;;;;;143.75;58.97;;;16.70;69.50;;;;;;5043059;28;20102;-41
2023/12/22 09:08:41;;;;;;;137.35;58.55;;;16.70;69.80;;;;;;5040366;28;20551;-40
2023/12/22 09:11:06;;;;;;;137.63;58.65;;;16.70;69.40;;;;;;5046626;28;20034;-40
2023/12/22 09:13:33;;;;;;;138.93;58.60;;;16.70;70.30;;;;;;5038669;28;20841;-41
2023/12/22 09:15:58;;;;;;;138.05;58.28;;;16.70;70.30;;;;;;5042022;28;20037;-40
2023/12/22 09:18:24;;;;;;;146.40;59.17;;;16.70;72.40;;;;;;5044956;28;20428;-39
2023/12/22 09:20:50;;;;;;;140.30;59.15;;;16.70;73.10;;;;;;5045719;28;20033;-41
2023/12/22 09:23:15;;;;;;;136.63;58.72;;;16.70;74.30;;;;;;5046416;28;20052;-41
2023/12/22 09:25:41;;;;;;;136.80;59.13;;;16.70;73.80;;;;;;5038188;28;20049;-43
2023/12/22 09:28:06;;;;;;;141.55;59.95;;;16.70;75.30;;;;;;5035480;28;20115;-42
2023/12/22 09:30:32;;;;;;;143.23;59.10;;;16.80;75.70;;;;;;5037832;28;20084;-42
2023/12/22 09:32:58;;;;;;;141.93;59.75;;;16.90;76.50;;;;;;5040038;28;20439;-40
2023/12/22 09:35:25;;;;;;;143.88;59.50;;;16.90;76.30;;;;;;5044785;28;21009;-41
2023/12/22 09:37:51;;;;;;;136.30;59.25;;;16.90;75.60;;;;;;5040254;28;20095;-42
2023/12/22 09:40:16;;;;;;;141.05;60.28;;;16.90;75.70;;;;;;5031718;28;20628;-40
2023/12/22 09:42:44;;;;;;;137.48;59.28;;;16.90;75.10;;;;;;5045126;28;20056;-41
2023/12/22 09:45:18;;;;;;;137.73;58.90;;;16.90;75.50;;;;;;5044872;28;20622;-41
2023/12/22 09:47:44;;;;;;;148.05;59.30;;;16.90;76.00;;;;;;5042294;28;20048;-41
2023/12/22 09:50:10;;;;;;;139.60;58.88;;;16.90;75.40;;;;;;5039698;28;20620;-41
2023/12/22 09:52:37;;;;;;;139.10;58.20;;;16.90;75.60;;;;;;5040160;28;20056;-39
2023/12/22 09:55:04;;;;;;;141.63;62.58;;;16.90;76.50;;;;;;5047726;28;20183;-42
2023/12/22 09:57:30;;;;;;;160.00;65.32;;;17.00;75.70;;;;;;5047531;28;20072;-41
2023/12/22 09:59:58;;;;;;;142.50;62.35;;;17.10;75.00;;;;;;5050672;28;20481;-39
2023/12/22 10:02:26;;;;;;;143.40;61.63;;;17.00;74.60;;;;;;5049652;28;21224;-39
2023/12/22 10:04:52;;;;;;;145.85;62.10;;;16.90;74.40;;;;;;5051993;28;20061;-39
2023/12/22 10:07:20;;;;;;;139.13;61.15;;;16.90;75.10;;;;;;5051403;28;20040;-38
2023/12/22 10:09:47;;;;;;;135.32;60.50;;;16.90;75.30;;;;;;5049619;28;20434;-39
2023/12/22 10:12:14;;;;;;;138.93;59.65;;;16.90;74.60;;;;;;5052778;28;20152;-39
2023/12/22 10:14:41;;;;;;;136.02;59.97;;;16.90;74.40;;;;;;5046166;28;20041;-42
2023/12/22 10:17:07;;;;;;;136.05;58.80;;;17.00;74.60;;;;;;5053433;28;20068;-39
2023/12/22 10:19:32;;;;;;;133.95;59.13;;;17.00;73.60;;;;;;5046782;28;20151;-39
2023/12/22 10:21:58;;;;;;;134.43;58.80;;;17.00;73.70;;;;;;5046789;28;20104;-40
2023/12/22 10:24:43;;;;;;;136.02;58.67;;;17.00;73.80;;;;;;5048772;28;20099;-39
2023/12/22 10:27:13;;;;;;;135.15;58.25;;;17.10;73.60;;;;;;5052833;28;20052;-39
2023/12/22 10:29:39;;;;;;;135.57;59.42;;;17.10;73.80;;;;;;5050719;28;20060;-39
2023/12/22 10:32:06;;;;;;;135.68;59.10;;;17.10;74.00;;;;;;5054652;28;20103;-39
2023/12/22 10:34:32;;;;;;;136.10;58.72;;;17.10;73.70;;;;;;5053942;28;20110;-39
2023/12/22 10:36:59;;;;;;;131.63;58.70;;;17.10;73.60;;;;;;5048168;28;20409;-38
2023/12/22 10:39:30;;;;;;;135.50;58.22;;;17.10;73.60;;;;;;5042813;28;20056;-38
2023/12/22 10:41:57;;;;;;;135.45;58.88;;;17.20;73.50;;;;;;5053857;28;20032;-39
2023/12/22 10:44:26;;;;;;;133.50;57.72;;;17.10;73.70;;;;;;5054854;28;20060;-40
2023/12/22 10:46:53;;;;;;;135.75;58.17;;;17.20;73.40;;;;;;5055219;28;20039;-39
2023/12/22 10:49:19;;;;;;;139.32;58.60;;;17.10;73.50;;;;;;5048859;28;21972;-39
2023/12/22 10:51:45;;;;;;;133.63;59.03;;;17.20;73.90;;;;;;5045379;28;20140;-39
2023/12/22 10:54:11;;;;;;;133.50;58.95;;;17.20;74.60;;;;;;5036898;28;20037;-39
2023/12/22 10:56:36;;;;;;;133.90;59.42;;;17.20;73.50;;;;;;5030493;28;20033;-42
2023/12/22 10:59:04;;;;;;;135.82;58.47;;;17.30;74.10;;;;;;5038885;28;20070;-38
2023/12/22 11:01:33;;;;;;;134.88;58.25;;;17.40;73.50;;;;;;5034550;28;20036;-37
2023/12/22 11:04:02;;;;;;;133.32;58.25;;;17.40;73.80;;;;;;5046842;28;20056;-40
2023/12/22 11:06:32;;;;;;;132.05;58.38;;;17.50;73.80;;;;;;5040346;28;20037;-42
2023/12/22 11:08:58;;;;;;;136.45;58.30;;;17.60;73.40;;;;;;5044490;28;20937;-39
2023/12/22 11:11:30;;;;;;;130.02;58.05;;;17.60;73.30;;;;;;5042925;28;20059;-40
2023/12/22 11:13:58;;;;;;;133.05;57.53;;;17.70;73.10;;;;;;5044192;28;20098;-42
2023/12/22 11:16:25;;;;;;;134.40;57.90;;;17.70;72.70;;;;;;5054286;28;20041;-40
2023/12/22 11:18:54;;;;;;;129.48;57.30;;;17.70;72.20;;;;;;5052850;28;20041;-42
2023/12/22 11:21:22;;;;;;;130.40;58.30;;;17.60;72.10;;;;;;5046343;28;20040;-43
2023/12/22 11:23:50;;;;;;;132.65;58.38;;;17.60;71.60;;;;;;5044750;28;20140;-43
2023/12/22 11:26:17;;;;;;;134.27;58.67;;;17.60;71.10;;;;;;5049545;28;20505;-44
2023/12/22 11:28:45;;;;;;;134.50;58.13;;;17.70;71.50;;;;;;5049315;28;20522;-43
2023/12/22 11:31:12;;;;;;;132.45;58.10;;;17.90;71.40;;;;;;5052567;28;20037;-39
2023/12/22 11:33:42;;;;;;;135.18;57.95;;;18.00;71.50;;;;;;5043480;28;20046;-41
2023/12/22 11:36:09;;;;;;;132.82;58.45;;;18.00;72.10;;;;;;5045842;28;20040;-40
2023/12/22 11:38:35;;;;;;;135.35;58.78;;;18.00;71.50;;;;;;5037075;28;20345;-39
2023/12/22 11:41:02;;;;;;;134.80;58.47;;;18.00;70.70;;;;;;5048153;28;20941;-38
2023/12/22 11:43:29;;;;;;;134.15;58.13;;;18.00;70.90;;;;;;5046216;28;20589;-39
2023/12/22 11:45:56;;;;;;;133.52;58.30;;;18.10;70.70;;;;;;5052758;28;20067;-40
2023/12/22 11:48:22;;;;;;;136.05;58.72;;;18.10;71.30;;;;;;5053478;28;20438;-47
2023/12/22 11:50:48;;;;;;;134.23;58.28;;;18.10;71.10;;;;;;5050894;28;20037;-39
2023/12/22 11:53:24;;;;;;;134.15;57.90;;;18.10;70.20;;;;;;5053941;28;20495;-40
2023/12/22 11:56:00;;;;;;;135.57;58.60;;;18.10;70.20;;;;;;5050170;28;20067;-43
2023/12/22 11:58:50;;;;;;;132.27;57.97;;;18.20;71.00;;;;;;5049734;28;20041;-41
2023/12/22 12:01:17;;;;;;;140.68;58.47;;;18.30;70.80;;;;;;5053149;28;20113;-39
2023/12/22 12:03:55;;;;;;;135.45;57.90;;;18.40;70.60;;;;;;5057634;28;20570;-38
2023/12/22 12:06:26;;;;;;;136.68;58.95;;;18.40;71.10;;;;;;5055336;28;20534;-41
2023/12/22 12:08:56;;;;;;;135.60;58.97;;;18.50;71.20;;;;;;5057348;28;20969;-44
2023/12/22 12:11:23;;;;;;;134.38;58.10;;;18.60;70.50;;;;;;5058632;28;20040;-38
2023/12/22 12:13:50;;;;;;;135.18;58.40;;;18.70;71.20;;;;;;5052711;28;20111;-39
2023/12/22 12:16:22;;;;;;;133.13;57.85;;;18.70;70.80;;;;;;5049453;28;20065;-39